createdAt,value
2019-05-09T00:01:08.012Z,-1.62
2019-05-09T00:03:34.257Z,-1.64
2019-05-09T00:06:00.495Z,-1.65
2019-05-09T00:08:26.724Z,-1.67
2019-05-09T00:10:53.579Z,-1.65
2019-05-09T00:13:19.907Z,-1.72
2019-05-09T00:15:46.153Z,-1.75
2019-05-09T00:18:14.302Z,-1.79
2019-05-09T00:20:48.187Z,-1.80
2019-05-09T00:23:14.421Z,-1.87
2019-05-09T00:25:40.672Z,-1.95
2019-05-09T00:28:07.114Z,-2.06
2019-05-09T00:30:43.899Z,-2.12
2019-05-09T00:33:10.333Z,-2.19
2019-05-09T00:35:37.062Z,-2.20
2019-05-09T00:38:04.613Z,-2.19
2019-05-09T00:40:30.832Z,-2.20
2019-05-09T00:42:57.096Z,-2.22
2019-05-09T00:45:25.245Z,-2.22
2019-05-09T00:47:53.866Z,-2.22
2019-05-09T00:50:19.618Z,-2.17
2019-05-09T00:52:45.874Z,-2.13
2019-05-09T00:55:13.210Z,-2.10
2019-05-09T00:57:39.548Z,-2.07
2019-05-09T01:00:14.648Z,-2.04
2019-05-09T01:02:40.786Z,-2.01
2019-05-09T01:05:07.241Z,-1.99
2019-05-09T01:07:33.770Z,-1.93
2019-05-09T01:10:00.024Z,-1.87
2019-05-09T01:12:26.261Z,-1.84
2019-05-09T01:14:53.898Z,-1.83
2019-05-09T01:17:20.246Z,-1.79
2019-05-09T01:19:46.795Z,-1.74
2019-05-09T01:22:13.313Z,-1.72
2019-05-09T01:24:39.675Z,-1.68
2019-05-09T01:27:05.916Z,-1.65
2019-05-09T01:29:33.744Z,-1.58
2019-05-09T01:32:03.558Z,-1.51
2019-05-09T01:34:33.126Z,-1.46
2019-05-09T01:37:06.384Z,-1.45
2019-05-09T01:39:35.888Z,-1.43
2019-05-09T01:42:03.266Z,-1.37
2019-05-09T01:44:29.781Z,-1.35
2019-05-09T01:46:56.007Z,-1.27
2019-05-09T01:49:23.238Z,-1.23
2019-05-09T01:51:49.626Z,-1.15
2019-05-09T01:54:17.255Z,-1.10
2019-05-09T01:56:43.501Z,-1.00
2019-05-09T01:59:09.723Z,-0.94
2019-05-09T02:01:35.970Z,-0.88
2019-05-09T02:04:04.111Z,-0.82
2019-05-09T02:06:30.350Z,-0.74
2019-05-09T02:08:56.588Z,-0.69
2019-05-09T02:11:23.842Z,-0.65
2019-05-09T02:13:50.348Z,-0.59
2019-05-09T02:16:27.008Z,-0.53
2019-05-09T02:19:00.609Z,-0.48
2019-05-09T02:21:26.854Z,-0.45
2019-05-09T02:23:53.783Z,-0.40
2019-05-09T02:26:20.130Z,-0.33
2019-05-09T02:28:46.364Z,-0.29
2019-05-09T02:31:16.142Z,-0.24
2019-05-09T02:33:40.744Z,-0.19
2019-05-09T02:36:09.650Z,-0.13
2019-05-09T02:38:35.180Z,-0.07
2019-05-09T02:41:01.404Z,-0.01
2019-05-09T02:43:29.153Z,0.04
2019-05-09T02:46:03.382Z,0.09
2019-05-09T02:48:29.617Z,0.15
2019-05-09T02:50:55.863Z,0.18
2019-05-09T02:53:22.107Z,0.24
2019-05-09T02:55:49.499Z,0.27
2019-05-09T02:58:20.274Z,0.32
2019-05-09T03:00:53.569Z,0.37
2019-05-09T03:03:21.606Z,0.42
2019-05-09T03:05:48.788Z,0.49
2019-05-09T03:08:15.214Z,0.55
2019-05-09T03:10:41.433Z,0.59
2019-05-09T03:13:09.401Z,0.63
2019-05-09T03:15:39.134Z,0.67
2019-05-09T03:18:03.958Z,0.71
2019-05-09T03:20:49.387Z,0.77
2019-05-09T03:23:18.865Z,0.83
2019-05-09T03:25:44.199Z,0.91
2019-05-09T03:28:21.068Z,0.97
2019-05-09T03:30:51.629Z,1.04
2019-05-09T03:33:20.144Z,1.11
2019-05-09T03:35:48.095Z,1.16
2019-05-09T03:38:14.136Z,1.27
2019-05-09T03:40:40.372Z,1.36
2019-05-09T03:43:07.969Z,1.45
2019-05-09T03:45:42.150Z,1.49
2019-05-09T03:48:10.189Z,1.59
2019-05-09T03:50:38.301Z,1.70
2019-05-09T03:53:04.583Z,1.80
2019-05-09T03:55:32.617Z,1.92
2019-05-09T03:58:00.660Z,2.00
2019-05-09T04:00:28.359Z,2.13
2019-05-09T04:02:54.829Z,2.23
2019-05-09T04:05:21.075Z,2.36
2019-05-09T04:07:47.982Z,2.55
2019-05-09T04:10:14.264Z,2.76
2019-05-09T04:12:52.884Z,2.94
2019-05-09T04:15:08.642Z,3.04
2019-05-09T04:17:38.187Z,3.24
2019-05-09T04:20:04.745Z,3.60
2019-05-09T04:22:30.994Z,4.04
2019-05-09T04:24:57.721Z,4.13
2019-05-09T04:27:29.670Z,4.02
2019-05-09T04:29:54.125Z,4.02
2019-05-09T04:32:20.359Z,3.97
2019-05-09T04:34:47.320Z,4.04
2019-05-09T04:37:13.668Z,4.06
2019-05-09T04:39:40.738Z,4.18
2019-05-09T04:42:08.324Z,4.33
2019-05-09T04:44:37.472Z,4.50
2019-05-09T04:47:04.080Z,4.68
2019-05-09T04:49:39.288Z,4.82
2019-05-09T04:51:58.624Z,4.93
2019-05-09T04:54:24.862Z,5.06
2019-05-09T04:56:53.774Z,5.22
2019-05-09T04:59:19.247Z,5.42
2019-05-09T05:01:50.089Z,5.42
2019-05-09T05:04:18.086Z,5.63
2019-05-09T05:06:44.505Z,5.63
2019-05-09T05:09:10.737Z,5.54
2019-05-09T05:11:38.317Z,5.69
2019-05-09T05:14:04.722Z,5.99
2019-05-09T05:16:31.159Z,6.86
2019-05-09T05:18:58.385Z,7.87
2019-05-09T05:21:24.844Z,8.21
2019-05-09T05:23:57.606Z,8.86
2019-05-09T05:26:23.810Z,9.28
2019-05-09T05:28:50.047Z,8.91
2019-05-09T05:31:18.088Z,8.31
2019-05-09T05:33:49.011Z,8.39
2019-05-09T05:36:19.132Z,8.26
2019-05-09T05:38:47.832Z,8.99
2019-05-09T05:41:13.528Z,9.28
2019-05-09T05:43:44.395Z,9.85
2019-05-09T05:46:28.527Z,10.32
2019-05-09T05:48:57.811Z,10.90
2019-05-09T05:51:24.124Z,11.64
2019-05-09T05:53:50.379Z,11.93
2019-05-09T05:56:17.633Z,12.35
2019-05-09T05:58:44.170Z,12.81
2019-05-09T06:01:10.412Z,12.70
2019-05-09T06:03:37.661Z,12.76
2019-05-09T06:06:04.181Z,12.66
2019-05-09T06:08:30.430Z,12.89
2019-05-09T06:10:57.608Z,12.95
2019-05-09T06:13:24.124Z,12.99
2019-05-09T06:15:50.353Z,13.17
2019-05-09T06:18:18.373Z,12.59
2019-05-09T06:20:45.677Z,13.07
2019-05-09T06:23:12.895Z,13.53
2019-05-09T06:25:39.136Z,13.84
2019-05-09T06:28:07.491Z,14.26
2019-05-09T06:30:33.637Z,14.58
2019-05-09T06:32:59.951Z,14.65
2019-05-09T06:35:28.247Z,14.31
2019-05-09T06:37:54.553Z,14.64
2019-05-09T06:40:24.342Z,14.80
2019-05-09T06:42:50.855Z,14.71
2019-05-09T06:45:32.670Z,14.08
2019-05-09T06:48:00.452Z,13.56
2019-05-09T06:50:27.357Z,13.02
2019-05-09T06:52:53.708Z,12.47
2019-05-09T06:55:19.950Z,12.30
2019-05-09T06:57:48.696Z,12.10
2019-05-09T07:00:28.705Z,12.01
2019-05-09T07:03:00.840Z,11.65
2019-05-09T07:05:31.946Z,11.69
2019-05-09T07:08:14.781Z,11.63
2019-05-09T07:10:41.060Z,11.50
2019-05-09T07:13:07.956Z,11.18
2019-05-09T07:15:34.329Z,11.10
2019-05-09T07:18:00.581Z,10.98
2019-05-09T07:20:28.446Z,10.93
2019-05-09T07:22:55.157Z,11.10
2019-05-09T07:25:23.217Z,11.20
2019-05-09T07:27:49.469Z,11.12
2019-05-09T07:30:24.375Z,11.26
2019-05-09T07:32:52.445Z,11.03
2019-05-09T07:35:18.813Z,10.96
2019-05-09T07:37:45.104Z,10.94
2019-05-09T07:40:11.463Z,10.81
2019-05-09T07:42:39.126Z,10.70
2019-05-09T07:45:05.636Z,10.80
2019-05-09T07:47:31.863Z,10.80
2019-05-09T07:49:58.617Z,10.79
2019-05-09T07:52:24.947Z,11.30
2019-05-09T07:54:51.189Z,12.12
2019-05-09T07:57:18.161Z,12.35
2019-05-09T07:59:44.683Z,12.37
2019-05-09T08:02:10.914Z,13.01
2019-05-09T08:04:38.606Z,13.30
2019-05-09T08:07:05.088Z,13.71
2019-05-09T08:09:31.335Z,13.44
2019-05-09T08:11:58.746Z,13.23
2019-05-09T08:14:25.212Z,12.59
2019-05-09T08:16:51.444Z,12.33
2019-05-09T08:19:18.165Z,12.38
2019-05-09T08:21:44.521Z,12.60
2019-05-09T08:24:10.780Z,13.21
2019-05-09T08:26:39.334Z,13.67
2019-05-09T08:29:05.179Z,13.47
2019-05-09T08:31:31.424Z,13.03
2019-05-09T08:33:59.437Z,14.28
2019-05-09T08:36:27.993Z,13.88
2019-05-09T08:38:53.973Z,13.77
2019-05-09T08:41:20.223Z,13.92
2019-05-09T08:43:48.382Z,13.32
2019-05-09T08:46:14.587Z,13.46
2019-05-09T08:48:40.824Z,12.62
2019-05-09T08:51:11.380Z,13.36
2019-05-09T08:53:38.151Z,13.71
2019-05-09T08:56:04.562Z,14.00
2019-05-09T08:58:30.792Z,14.34
2019-05-09T09:01:03.914Z,14.57
2019-05-09T09:03:25.200Z,14.69
2019-05-09T09:05:51.481Z,14.68
2019-05-09T09:08:18.442Z,14.95
2019-05-09T09:10:44.876Z,15.10
2019-05-09T09:13:11.123Z,15.06
2019-05-09T09:16:02.484Z,14.94
2019-05-09T09:18:05.545Z,15.13
2019-05-09T09:20:31.784Z,15.12
2019-05-09T09:22:58.465Z,15.33
2019-05-09T09:25:24.890Z,15.25
2019-05-09T09:27:51.296Z,15.30
2019-05-09T09:30:24.721Z,15.17
2019-05-09T09:32:47.955Z,14.78
2019-05-09T09:35:14.216Z,14.31
2019-05-09T09:37:48.481Z,14.61
2019-05-09T09:40:08.969Z,14.76
2019-05-09T09:42:35.253Z,14.57
2019-05-09T09:45:01.606Z,14.83
2019-05-09T09:47:28.606Z,15.01
2019-05-09T09:49:55.471Z,14.95
2019-05-09T09:52:23.234Z,15.10
2019-05-09T09:54:49.470Z,15.09
2019-05-09T09:57:18.817Z,14.95
2019-05-09T09:59:48.290Z,14.86
2019-05-09T10:02:15.634Z,15.11
2019-05-09T10:04:41.893Z,15.06
2019-05-09T10:07:08.862Z,15.33
2019-05-09T10:09:35.400Z,15.34
2019-05-09T10:12:01.650Z,15.41
2019-05-09T10:14:32.760Z,15.41
2019-05-09T10:17:03.647Z,15.35
2019-05-09T10:19:34.287Z,15.22
2019-05-09T10:22:08.509Z,15.44
2019-05-09T10:24:35.031Z,15.36
2019-05-09T10:27:09.088Z,15.20
2019-05-09T10:29:35.512Z,15.21
2019-05-09T10:32:02.652Z,15.06
2019-05-09T10:34:28.976Z,15.17
2019-05-09T10:36:55.253Z,15.13
2019-05-09T10:39:21.505Z,14.74
2019-05-09T10:41:48.289Z,14.27
2019-05-09T10:44:18.918Z,14.13
2019-05-09T10:46:53.764Z,13.92
2019-05-09T10:49:15.121Z,13.76
2019-05-09T10:51:41.365Z,13.74
2019-05-09T10:54:08.286Z,13.59
2019-05-09T10:56:34.643Z,13.61
2019-05-09T10:59:00.881Z,14.03
2019-05-09T11:01:29.521Z,14.29
2019-05-09T11:03:55.282Z,14.67
2019-05-09T11:06:21.542Z,14.52
2019-05-09T11:08:48.109Z,14.31
2019-05-09T11:11:14.542Z,14.03
2019-05-09T11:13:40.873Z,14.03
2019-05-09T11:16:07.679Z,14.12
2019-05-09T11:18:34.055Z,13.89
2019-05-09T11:21:00.300Z,13.94
2019-05-09T11:23:28.999Z,14.11
2019-05-09T11:25:54.692Z,13.96
2019-05-09T11:28:20.942Z,14.04
2019-05-09T11:30:47.729Z,14.01
2019-05-09T11:33:14.023Z,14.26
2019-05-09T11:35:40.261Z,14.15
2019-05-09T11:38:08.434Z,14.07
2019-05-09T11:40:34.657Z,14.28
2019-05-09T11:43:00.898Z,14.36
2019-05-09T11:45:28.073Z,14.17
2019-05-09T11:47:54.499Z,14.03
2019-05-09T11:50:23.250Z,14.04
2019-05-09T11:52:49.210Z,14.12
2019-05-09T11:55:29.847Z,14.27
2019-05-09T11:57:43.741Z,14.39
2019-05-09T12:00:10.690Z,14.51
2019-05-09T12:02:38.489Z,14.38
2019-05-09T12:05:05.374Z,14.33
2019-05-09T12:07:31.615Z,14.54
2019-05-09T12:09:58.917Z,14.47
2019-05-09T12:12:28.124Z,14.38
2019-05-09T12:14:53.557Z,14.67
2019-05-09T12:17:19.970Z,14.61
2019-05-09T12:19:48.756Z,14.70
2019-05-09T12:22:14.492Z,15.07
2019-05-09T12:24:40.745Z,14.72
2019-05-09T12:27:08.711Z,14.55
2019-05-09T12:29:35.135Z,14.44
2019-05-09T12:32:01.385Z,14.41
2019-05-09T12:34:27.789Z,14.64
2019-05-09T12:36:54.075Z,14.85
2019-05-09T12:39:20.310Z,14.84
2019-05-09T12:41:48.432Z,14.94
2019-05-09T12:44:14.699Z,14.68
2019-05-09T12:46:40.977Z,14.59
2019-05-09T12:49:08.991Z,13.81
2019-05-09T12:51:37.519Z,14.54
2019-05-09T12:54:03.503Z,14.47
2019-05-09T12:56:29.748Z,14.64
2019-05-09T12:58:57.957Z,14.75
2019-05-09T13:01:24.189Z,14.64
2019-05-09T13:03:50.435Z,14.88
2019-05-09T13:06:20.099Z,15.02
2019-05-09T13:08:44.877Z,14.99
2019-05-09T13:11:11.130Z,14.82
2019-05-09T13:13:40.846Z,14.75
2019-05-09T13:16:10.918Z,14.83
2019-05-09T13:18:53.656Z,14.95
2019-05-09T13:21:19.900Z,14.73
2019-05-09T13:23:51.889Z,15.03
2019-05-09T13:26:14.312Z,15.38
2019-05-09T13:28:40.569Z,15.03
2019-05-09T13:31:08.266Z,15.12
2019-05-09T13:33:34.681Z,15.44
2019-05-09T13:36:00.916Z,15.51
2019-05-09T13:38:27.667Z,15.55
2019-05-09T13:40:54.208Z,15.55
2019-05-09T13:43:20.501Z,15.60
2019-05-09T13:45:46.736Z,15.70
2019-05-09T13:48:27.066Z,15.72
2019-05-09T13:50:41.160Z,15.47
2019-05-09T13:53:07.695Z,15.47
2019-05-09T13:55:34.076Z,15.57
2019-05-09T13:58:00.321Z,15.33
2019-05-09T14:00:28.561Z,15.56
2019-05-09T14:02:54.751Z,15.71
2019-05-09T14:05:20.992Z,15.67
2019-05-09T14:07:49.152Z,15.60
2019-05-09T14:10:17.718Z,15.12
2019-05-09T14:12:43.560Z,14.93
2019-05-09T14:15:09.826Z,14.87
2019-05-09T14:17:48.377Z,14.74
2019-05-09T14:20:05.427Z,14.76
2019-05-09T14:22:33.414Z,14.48
2019-05-09T14:24:59.873Z,14.49
2019-05-09T14:27:28.368Z,14.40
2019-05-09T14:29:54.310Z,14.38
2019-05-09T14:32:20.542Z,14.46
2019-05-09T14:34:48.192Z,14.32
2019-05-09T14:37:14.747Z,14.08
2019-05-09T14:39:54.868Z,14.18
2019-05-09T14:42:09.355Z,14.09
2019-05-09T14:44:37.624Z,13.86
2019-05-09T14:47:03.734Z,13.73
2019-05-09T14:49:40.236Z,13.67
2019-05-09T14:51:58.125Z,13.48
2019-05-09T14:54:24.365Z,13.40
2019-05-09T14:56:50.616Z,13.40
2019-05-09T14:59:18.629Z,13.37
2019-05-09T15:01:45.005Z,13.37
2019-05-09T15:04:11.252Z,13.33
2019-05-09T15:06:37.563Z,13.24
2019-05-09T15:09:08.066Z,13.25
2019-05-09T15:11:34.139Z,13.25
2019-05-09T15:14:00.377Z,13.22
2019-05-09T15:16:28.261Z,13.09
2019-05-09T15:18:54.754Z,12.94
2019-05-09T15:21:21.002Z,12.73
2019-05-09T15:23:48.150Z,12.51
2019-05-09T15:26:14.595Z,12.41
2019-05-09T15:28:40.821Z,12.45
2019-05-09T15:31:08.849Z,12.44
2019-05-09T15:33:37.458Z,12.38
2019-05-09T15:36:03.345Z,12.25
2019-05-09T15:38:29.592Z,12.21
2019-05-09T15:40:55.916Z,12.17
2019-05-09T15:43:22.226Z,12.05
2019-05-09T15:45:53.241Z,12.04
2019-05-09T15:48:19.475Z,11.97
2019-05-09T15:50:47.599Z,11.87
2019-05-09T15:53:13.872Z,11.80
2019-05-09T15:55:40.115Z,11.81
2019-05-09T15:58:06.351Z,11.81
2019-05-09T16:00:34.248Z,11.78
2019-05-09T16:03:00.527Z,11.67
2019-05-09T16:05:26.766Z,11.69
2019-05-09T16:07:53.016Z,11.64
2019-05-09T16:10:19.243Z,11.66
2019-05-09T16:12:45.492Z,11.65
2019-05-09T16:15:11.821Z,11.59
2019-05-09T16:17:39.401Z,11.47
2019-05-09T16:20:08.416Z,11.43
2019-05-09T16:22:34.475Z,11.37
2019-05-09T16:25:00.720Z,11.35
2019-05-09T16:27:26.975Z,11.38
2019-05-09T16:29:53.216Z,11.38
2019-05-09T16:32:19.447Z,11.36
2019-05-09T16:34:45.692Z,11.32
2019-05-09T16:37:11.953Z,11.30
2019-05-09T16:39:38.194Z,11.26
2019-05-09T16:42:04.426Z,11.24
2019-05-09T16:44:30.677Z,11.21
2019-05-09T16:46:57.676Z,10.75
2019-05-09T16:49:25.881Z,11.19
2019-05-09T16:51:52.230Z,11.17
2019-05-09T16:54:21.352Z,11.15
2019-05-09T16:56:47.596Z,11.10
2019-05-09T16:59:13.845Z,10.98
2019-05-09T17:01:41.878Z,10.94
2019-05-09T17:04:08.325Z,10.92
2019-05-09T17:06:34.596Z,10.82
2019-05-09T17:09:00.828Z,10.74
2019-05-09T17:11:27.799Z,10.71
2019-05-09T17:13:54.397Z,10.68
2019-05-09T17:16:20.669Z,10.64
2019-05-09T17:18:48.654Z,10.55
2019-05-09T17:21:32.056Z,10.49
2019-05-09T17:23:59.384Z,10.37
2019-05-09T17:26:28.208Z,10.30
2019-05-09T17:28:53.777Z,10.21
2019-05-09T17:31:20.035Z,10.09
2019-05-09T17:33:48.535Z,10.03
2019-05-09T17:36:14.429Z,9.88
2019-05-09T17:38:40.657Z,9.82
2019-05-09T17:41:08.274Z,9.79
2019-05-09T17:43:34.689Z,9.61
2019-05-09T17:46:00.963Z,9.50
2019-05-09T17:48:28.566Z,9.35
2019-05-09T17:50:58.348Z,9.15
2019-05-09T17:53:24.594Z,8.96
2019-05-09T17:55:51.927Z,8.91
2019-05-09T17:58:29.124Z,8.89
2019-05-09T18:00:48.372Z,8.80
2019-05-09T18:03:14.536Z,8.77
2019-05-09T18:05:40.832Z,8.66
2019-05-09T18:08:08.060Z,8.53
2019-05-09T18:10:34.530Z,8.47
2019-05-09T18:13:00.781Z,8.40
2019-05-09T18:15:28.251Z,8.32
2019-05-09T18:17:54.663Z,8.27
2019-05-09T18:20:20.899Z,8.27
2019-05-09T18:22:47.884Z,8.22
2019-05-09T18:25:14.795Z,8.20
2019-05-09T18:27:41.043Z,8.14
2019-05-09T18:30:07.900Z,8.10
2019-05-09T18:32:42.994Z,8.02
2019-05-09T18:35:12.150Z,7.95
2019-05-09T18:37:38.371Z,7.90
2019-05-09T18:40:05.126Z,7.83
2019-05-09T18:42:31.388Z,7.79
2019-05-09T18:44:59.652Z,7.69
2019-05-09T18:47:27.834Z,7.63
2019-05-09T18:49:53.946Z,7.59
2019-05-09T18:52:20.180Z,7.52
2019-05-09T18:54:46.635Z,7.46
2019-05-09T18:57:12.974Z,7.42
2019-05-09T18:59:39.233Z,7.38
2019-05-09T19:02:05.475Z,7.36
2019-05-09T19:04:31.720Z,7.32
2019-05-09T19:06:57.959Z,7.28
2019-05-09T19:09:24.201Z,7.28
2019-05-09T19:11:50.601Z,7.21
2019-05-09T19:14:18.703Z,7.13
2019-05-09T19:17:03.892Z,7.11
2019-05-09T19:19:31.934Z,7.02
2019-05-09T19:22:04.663Z,5.95
2019-05-09T19:24:28.137Z,6.88
2019-05-09T19:26:54.356Z,6.82
2019-05-09T19:29:20.582Z,6.79
2019-05-09T19:31:46.830Z,6.69
2019-05-09T19:34:13.138Z,6.67
2019-05-09T19:36:39.413Z,6.65
2019-05-09T19:39:07.041Z,6.62
2019-05-09T19:41:34.179Z,6.58
2019-05-09T19:44:00.418Z,6.56
2019-05-09T19:46:26.673Z,6.51
2019-05-09T19:48:52.905Z,6.47
2019-05-09T19:51:19.161Z,6.41
2019-05-09T19:53:45.380Z,6.39
2019-05-09T19:56:11.625Z,6.35
2019-05-09T19:58:37.868Z,6.30
2019-05-09T20:01:04.101Z,6.28
2019-05-09T20:03:30.331Z,6.26
2019-05-09T20:05:56.572Z,6.20
2019-05-09T20:08:22.852Z,6.16
2019-05-09T20:11:06.292Z,6.13
2019-05-09T20:13:36.153Z,6.11
2019-05-09T20:16:02.383Z,6.08
2019-05-09T20:18:28.632Z,6.05
2019-05-09T20:20:54.863Z,6.01
2019-05-09T20:23:21.117Z,5.97
2019-05-09T20:25:47.345Z,5.94
2019-05-09T20:28:13.581Z,5.91
2019-05-09T20:30:39.824Z,5.90
2019-05-09T20:33:06.067Z,5.86
2019-05-09T20:35:32.302Z,5.81
2019-05-09T20:37:58.553Z,5.80
2019-05-09T20:40:24.774Z,5.72
2019-05-09T20:42:51.052Z,5.69
2019-05-09T20:45:17.300Z,5.69
2019-05-09T20:47:43.537Z,5.65
2019-05-09T20:50:09.966Z,5.58
2019-05-09T20:52:36.217Z,5.57
2019-05-09T20:55:03.657Z,5.58
2019-05-09T20:57:29.879Z,5.55
2019-05-09T20:59:56.139Z,5.53
2019-05-09T21:02:22.346Z,5.51
2019-05-09T21:04:48.618Z,5.46
2019-05-09T21:07:14.815Z,5.44
2019-05-09T21:09:41.062Z,5.44
2019-05-09T21:12:10.616Z,5.41
2019-05-09T21:14:35.440Z,5.40
2019-05-09T21:17:01.668Z,5.36
2019-05-09T21:19:27.943Z,5.33
2019-05-09T21:21:54.194Z,5.25
2019-05-09T21:24:20.464Z,5.19
2019-05-09T21:26:46.703Z,5.10
2019-05-09T21:29:12.941Z,5.08
2019-05-09T21:31:39.180Z,5.01
2019-05-09T21:34:05.431Z,4.98
2019-05-09T21:36:31.659Z,4.97
2019-05-09T21:38:57.926Z,5.01
2019-05-09T21:41:24.165Z,5.04
2019-05-09T21:43:50.405Z,5.00
2019-05-09T21:46:16.663Z,4.99
2019-05-09T21:48:42.910Z,4.95
2019-05-09T21:51:09.155Z,4.86
2019-05-09T21:53:41.011Z,4.66
2019-05-09T21:56:03.645Z,4.54
2019-05-09T21:58:29.877Z,4.42
2019-05-09T22:00:58.870Z,4.33
2019-05-09T22:03:25.313Z,4.25
2019-05-09T22:05:51.552Z,4.13
2019-05-09T22:08:17.781Z,4.05
2019-05-09T22:10:45.823Z,3.90
2019-05-09T22:13:12.044Z,3.77
2019-05-09T22:15:38.296Z,3.63
2019-05-09T22:18:04.523Z,3.55
2019-05-09T22:20:30.763Z,3.44
2019-05-09T22:22:57.007Z,3.37
2019-05-09T22:25:23.267Z,3.30
2019-05-09T22:27:49.513Z,3.21
2019-05-09T22:30:16.291Z,3.05
2019-05-09T22:32:42.518Z,2.92
2019-05-09T22:35:09.254Z,2.81
2019-05-09T22:37:35.504Z,2.72
2019-05-09T22:40:01.944Z,2.61
2019-05-09T22:42:28.199Z,2.57
2019-05-09T22:44:54.443Z,2.45
2019-05-09T22:47:20.686Z,2.35
2019-05-09T22:49:46.913Z,2.28
2019-05-09T22:52:13.168Z,2.18
2019-05-09T22:54:39.403Z,2.02
2019-05-09T22:57:05.656Z,1.92
2019-05-09T22:59:31.889Z,1.80
2019-05-09T23:01:58.166Z,1.66
2019-05-09T23:04:27.433Z,1.54
2019-05-09T23:06:53.697Z,1.46
2019-05-09T23:09:19.926Z,1.41
2019-05-09T23:11:46.166Z,1.38
2019-05-09T23:14:12.419Z,1.28
2019-05-09T23:16:39.965Z,1.17
2019-05-09T23:19:06.214Z,1.11
2019-05-09T23:21:32.477Z,1.09
2019-05-09T23:24:00.530Z,1.04
2019-05-09T23:26:26.753Z,0.94
2019-05-09T23:28:53.003Z,0.85
2019-05-09T23:34:09.644Z,0.74
2019-05-09T23:36:35.895Z,0.68
2019-05-09T23:39:09.731Z,0.65
2019-05-09T23:41:35.960Z,0.64
2019-05-09T23:44:02.212Z,0.62
2019-05-09T23:46:28.470Z,0.61
2019-05-09T23:48:54.744Z,0.59
2019-05-09T23:51:21.672Z,0.53
2019-05-09T23:53:53.757Z,0.45
2019-05-09T23:56:38.625Z,0.36
2019-05-09T23:59:23.151Z,0.31
